Terminal Aerodrome Forecast
Issued by NWS Louisville, KY

Home | Current Version | Previous Version | Text Only | Print | Product List | Glossary On
Versions: 1 2 3 4 5 6 7 8 9 10 11 12 13 14 15 16
085
FTUS43 KLMK 210533
TAFLEX
TAF
KLEX 210533Z 2106/2206 17007KT P6SM -SHRA FEW009 BKN060
     FM210900 18009KT P6SM -SHRA BKN025
     FM211200 20008KT P6SM VCSH BKN015
     FM211700 21010KT P6SM VCSH BKN025
     FM212100 23010KT P6SM SCT022 BKN050=

USA.gov is the U.S. government's official web portal to all federal, state and local government web resources and services.